Time;durP1;ratioP1;P1;durP2;ratioP2;P2;SDS_P1;SDS_P2;PMS_P1;PMS_P2;Temp;Humidity;BMP_temperature;BMP_pressure;BME280_temperature;BME280_humidity;BME280_pressure;Samples;Min_cycle;Max_cycle;Signal;HPM_P1;HPM_P2
2021/01/13 00:02:22;;;;;;;2.13;1.52;;;16.60;38.10;;;;;;6114338;23;20132;-81
2021/01/13 00:04:48;;;;;;;1.63;1.30;;;16.60;38.20;;;;;;6114411;23;20148;-81
2021/01/13 00:07:14;;;;;;;1.67;1.20;;;16.60;38.20;;;;;;6113703;23;20132;-81
2021/01/13 00:09:43;;;;;;;1.92;1.20;;;16.60;38.20;;;;;;6065338;23;20159;-81
2021/01/13 00:12:11;;;;;;;1.65;1.25;;;16.60;38.20;;;;;;6140108;23;20140;-81
2021/01/13 00:14:40;;;;;;;0.90;0.90;;;16.60;38.30;;;;;;6140273;23;20164;-80
2021/01/13 00:17:08;;;;;;;1.40;1.30;;;16.50;38.20;;;;;;6140402;23;20128;-81
2021/01/13 00:19:34;;;;;;;1.40;1.25;;;16.50;38.30;;;;;;6114125;23;20136;-81
2021/01/13 00:22:01;;;;;;;1.65;1.30;;;16.50;38.40;;;;;;6140096;23;20144;-81
2021/01/13 00:24:26;;;;;;;2.25;1.00;;;16.50;38.40;;;;;;6139503;23;20195;-81
2021/01/13 00:27:01;;;;;;;1.42;1.17;;;16.40;38.40;;;;;;6139591;23;20137;-84
2021/01/13 00:29:26;;;;;;;1.65;1.23;;;16.50;38.40;;;;;;6139525;23;20131;-81
2021/01/13 00:31:55;;;;;;;1.25;1.15;;;16.50;38.40;;;;;;6089868;23;20136;-81
2021/01/13 00:34:21;;;;;;;2.88;1.45;;;16.50;38.40;;;;;;6114879;23;20164;-81
2021/01/13 00:36:47;;;;;;;1.35;1.10;;;16.50;38.30;;;;;;6140060;23;20523;-81
2021/01/13 00:39:15;;;;;;;1.27;1.10;;;16.50;38.40;;;;;;6113648;23;20556;-81
2021/01/13 00:41:41;;;;;;;1.55;1.20;;;16.50;38.40;;;;;;6139917;23;20192;-81
2021/01/13 00:44:08;;;;;;;1.92;1.30;;;16.50;38.30;;;;;;6139865;23;20144;-81
2021/01/13 00:46:45;;;;;;;1.63;1.10;;;16.50;38.30;;;;;;6113747;23;20140;-81
2021/01/13 00:49:11;;;;;;;1.60;1.30;;;16.50;38.30;;;;;;6114119;23;20178;-80
2021/01/13 00:51:39;;;;;;;1.67;1.35;;;16.50;38.40;;;;;;6090025;23;20159;-80
2021/01/13 00:54:05;;;;;;;2.40;1.30;;;16.50;38.40;;;;;;6066180;23;20246;-81
2021/01/13 00:56:31;;;;;;;1.83;1.40;;;16.50;39.10;;;;;;6090326;23;20128;-81
2021/01/13 00:58:57;;;;;;;1.85;1.30;;;16.50;38.40;;;;;;6139852;23;20132;-81
2021/01/13 01:01:25;;;;;;;1.25;1.15;;;16.50;38.40;;;;;;6139824;23;20138;-83
2021/01/13 01:03:53;;;;;;;1.33;1.23;;;16.50;38.50;;;;;;6139738;23;20136;-81
2021/01/13 01:06:19;;;;;;;1.50;1.20;;;16.50;38.50;;;;;;6140184;23;20168;-81
2021/01/13 01:08:46;;;;;;;1.30;1.17;;;16.50;38.50;;;;;;6114161;23;20137;-81
2021/01/13 01:11:22;;;;;;;1.77;1.35;;;16.60;38.40;;;;;;6140392;23;20263;-80
2021/01/13 01:13:52;;;;;;;1.77;1.23;;;16.50;38.40;;;;;;6139508;23;20499;-81
2021/01/13 01:16:17;;;;;;;1.95;1.20;;;16.50;38.50;;;;;;6139854;23;20212;-80
2021/01/13 01:18:44;;;;;;;1.10;1.00;;;16.40;38.50;;;;;;6139219;23;20140;-81
2021/01/13 01:21:18;;;;;;;1.80;1.15;;;16.50;38.60;;;;;;6114032;23;20156;-81
2021/01/13 01:23:45;;;;;;;1.40;1.10;;;16.40;38.50;;;;;;6139642;23;20136;-80
2021/01/13 01:26:11;;;;;;;2.00;1.23;;;16.50;38.50;;;;;;6139533;23;20137;-80
2021/01/13 01:28:38;;;;;;;1.33;1.23;;;16.50;38.50;;;;;;6140911;23;20140;-81
2021/01/13 01:31:04;;;;;;;1.48;1.17;;;16.50;38.50;;;;;;6113955;23;20152;-81
2021/01/13 01:33:30;;;;;;;1.60;1.30;;;16.50;38.50;;;;;;6139824;23;20658;-81
2021/01/13 01:35:58;;;;;;;1.30;1.20;;;16.50;38.50;;;;;;6139382;23;20132;-80
2021/01/13 01:38:32;;;;;;;1.83;1.20;;;16.50;38.50;;;;;;6139848;23;20183;-81
2021/01/13 01:41:06;;;;;;;1.33;1.20;;;16.50;38.60;;;;;;6114211;23;20153;-80
2021/01/13 01:43:32;;;;;;;1.60;1.20;;;16.50;38.50;;;;;;6114009;23;20174;-81
2021/01/13 01:46:01;;;;;;;1.63;1.38;;;16.50;38.50;;;;;;6114328;23;20635;-81
2021/01/13 01:48:44;;;;;;;1.65;1.52;;;16.50;38.50;;;;;;6139970;23;20153;-80
2021/01/13 01:51:21;;;;;;;1.38;1.15;;;16.40;38.60;;;;;;6114371;23;20141;-81
2021/01/13 01:53:55;;;;;;;1.92;1.30;;;16.40;38.50;;;;;;6139791;23;20193;-81
2021/01/13 01:56:37;;;;;;;1.95;1.30;;;16.40;38.60;;;;;;6140206;23;20136;-81
2021/01/13 01:59:40;;;;;;;1.23;1.13;;;16.40;38.60;;;;;;6140244;23;20531;-81
2021/01/13 02:02:32;;;;;;;2.45;1.33;;;16.50;38.70;;;;;;6137957;23;20143;-81
2021/01/13 02:04:59;;;;;;;1.45;1.30;;;16.50;38.70;;;;;;6140252;23;20143;-81
2021/01/13 02:07:43;;;;;;;1.77;1.30;;;16.40;38.70;;;;;;6091648;23;20144;-81
2021/01/13 02:10:10;;;;;;;2.53;1.30;;;16.40;38.70;;;;;;6115987;23;20528;-81
2021/01/13 02:12:37;;;;;;;1.70;1.30;;;16.40;38.70;;;;;;6141695;23;20168;-81
2021/01/13 02:15:06;;;;;;;2.08;1.50;;;16.40;38.70;;;;;;6115891;23;20190;-80
2021/01/13 02:17:35;;;;;;;1.30;1.20;;;16.40;38.60;;;;;;6116141;23;20275;-81
2021/01/13 02:20:09;;;;;;;1.60;1.10;;;16.40;38.70;;;;;;6141209;23;20204;-81
2021/01/13 02:22:56;;;;;;;1.30;1.17;;;16.40;38.80;;;;;;6141573;23;20195;-81
2021/01/13 02:25:39;;;;;;;1.55;1.30;;;16.40;38.60;;;;;;6137583;23;20152;-81
2021/01/13 02:28:35;;;;;;;2.13;1.27;;;16.40;38.70;;;;;;6141492;23;20210;-81
2021/01/13 02:31:13;;;;;;;1.30;1.20;;;16.40;38.70;;;;;;6023246;23;20161;-81
2021/01/13 02:33:52;;;;;;;1.83;1.20;;;16.40;38.60;;;;;;5999987;23;20171;-81
2021/01/13 02:36:26;;;;;;;1.17;1.10;;;16.40;38.70;;;;;;5999117;23;20171;-81
2021/01/13 02:38:53;;;;;;;1.30;1.20;;;16.40;38.70;;;;;;5972371;24;20139;-81
2021/01/13 02:41:28;;;;;;;1.77;1.17;;;16.40;38.70;;;;;;5996345;24;20152;-81
2021/01/13 02:44:14;;;;;;;1.83;1.45;;;16.40;38.80;;;;;;5995315;24;20143;-81
2021/01/13 02:46:56;;;;;;;2.60;1.40;;;16.40;38.70;;;;;;5995160;24;20565;-81
2021/01/13 02:49:48;;;;;;;1.48;1.20;;;16.50;38.60;;;;;;5996355;24;20631;-81
2021/01/13 02:52:19;;;;;;;1.10;1.00;;;16.40;38.70;;;;;;5972992;24;20155;-81
2021/01/13 02:55:02;;;;;;;1.45;1.17;;;16.40;38.80;;;;;;5995674;24;20190;-81
2021/01/13 02:57:29;;;;;;;1.88;1.10;;;16.40;38.70;;;;;;5994973;24;20294;-81
2021/01/13 03:00:16;;;;;;;1.35;1.10;;;16.40;38.80;;;;;;5995321;24;20179;-82
2021/01/13 03:02:42;;;;;;;1.17;1.08;;;16.40;38.90;;;;;;5994462;24;20203;-81
2021/01/13 03:05:08;;;;;;;1.67;1.30;;;16.40;38.80;;;;;;5972253;24;20588;-81
2021/01/13 03:07:36;;;;;;;1.67;1.15;;;16.40;38.80;;;;;;6064215;23;20160;-82
2021/01/13 03:10:12;;;;;;;1.13;1.02;;;16.40;38.90;;;;;;6063415;23;20129;-80
2021/01/13 03:12:58;;;;;;;1.30;1.20;;;16.40;38.90;;;;;;6087153;23;20225;-81
2021/01/13 03:15:30;;;;;;;1.95;1.20;;;16.40;39.00;;;;;;6110555;23;20160;-81
2021/01/13 03:18:03;;;;;;;1.75;1.48;;;16.40;38.90;;;;;;6086625;23;20133;-83
2021/01/13 03:21:00;;;;;;;1.30;1.20;;;16.40;38.90;;;;;;6086505;23;20133;-81
2021/01/13 03:24:13;;;;;;;1.50;1.27;;;16.40;38.90;;;;;;6113195;23;20148;-81
2021/01/13 03:26:49;;;;;;;1.70;1.30;;;16.40;38.90;;;;;;6084725;23;20153;-81
2021/01/13 03:29:20;;;;;;;1.60;1.10;;;16.40;39.00;;;;;;6111541;23;20160;-81
2021/01/13 03:32:08;;;;;;;1.60;1.27;;;16.40;38.90;;;;;;6087012;23;20141;-81
2021/01/13 03:34:39;;;;;;;1.20;1.10;;;16.40;38.90;;;;;;6111751;23;20169;-82
2021/01/13 03:37:17;;;;;;;1.20;1.10;;;16.40;38.90;;;;;;6076281;23;20215;-81
2021/01/13 03:39:47;;;;;;;1.27;1.17;;;16.40;38.90;;;;;;6115914;23;20144;-81
2021/01/13 03:42:16;;;;;;;1.20;1.10;;;16.30;39.10;;;;;;6115437;23;20140;-81
2021/01/13 03:44:45;;;;;;;1.33;1.23;;;16.40;39.00;;;;;;6141460;23;20143;-81
2021/01/13 03:47:18;;;;;;;1.38;1.27;;;16.30;39.00;;;;;;6141821;23;20137;-81
2021/01/13 03:50:24;;;;;;;1.40;1.20;;;16.40;39.00;;;;;;6141607;23;20159;-81
2021/01/13 03:53:02;;;;;;;1.00;1.00;;;16.40;39.60;;;;;;6120312;23;20172;-80
2021/01/13 03:55:29;;;;;;;1.35;1.17;;;16.40;38.90;;;;;;6141394;23;20132;-83
2021/01/13 03:57:58;;;;;;;1.60;1.50;;;16.40;38.90;;;;;;6141174;23;20144;-81
2021/01/13 04:00:39;;;;;;;1.30;1.17;;;16.40;38.90;;;;;;6141028;23;20224;-81
2021/01/13 04:03:28;;;;;;;1.92;1.00;;;16.40;39.00;;;;;;6118039;23;20140;-82
2021/01/13 04:06:04;;;;;;;1.55;1.10;;;16.40;39.10;;;;;;6140741;23;20140;-82
2021/01/13 04:08:50;;;;;;;1.20;1.08;;;16.40;39.00;;;;;;6115644;23;20572;-81
2021/01/13 04:11:21;;;;;;;1.30;1.10;;;16.30;39.10;;;;;;6140561;23;20479;-81
2021/01/13 04:13:54;;;;;;;1.55;1.10;;;16.30;39.10;;;;;;6066641;23;20190;-81
2021/01/13 04:16:22;;;;;;;1.50;1.20;;;16.40;39.10;;;;;;6141954;23;20136;-81
2021/01/13 04:18:50;;;;;;;1.95;1.13;;;16.40;39.10;;;;;;6141646;23;20159;-81
2021/01/13 04:21:16;;;;;;;1.75;1.20;;;16.40;39.10;;;;;;6140586;23;20245;-81
2021/01/13 04:23:42;;;;;;;1.55;1.30;;;16.40;39.10;;;;;;6141135;23;20137;-81
2021/01/13 04:26:15;;;;;;;1.65;1.17;;;16.40;38.90;;;;;;6114905;23;20164;-80
2021/01/13 04:28:42;;;;;;;1.35;1.05;;;16.40;39.00;;;;;;6140885;23;20163;-81
2021/01/13 04:31:12;;;;;;;1.27;1.13;;;16.40;39.10;;;;;;6140498;23;20136;-80
2021/01/13 04:33:38;;;;;;;1.20;1.10;;;16.40;39.70;;;;;;6140713;23;20172;-81
2021/01/13 04:36:04;;;;;;;1.13;0.98;;;16.30;39.00;;;;;;6140531;23;20159;-80
2021/01/13 04:38:32;;;;;;;1.35;0.90;;;16.40;39.70;;;;;;6140481;23;20184;-81
2021/01/13 04:41:08;;;;;;;1.85;1.17;;;16.30;39.10;;;;;;6140986;23;20449;-81
2021/01/13 04:43:54;;;;;;;1.27;1.10;;;16.30;39.10;;;;;;6116008;23;20477;-81
2021/01/13 04:46:38;;;;;;;1.30;1.20;;;16.40;39.10;;;;;;6141617;23;20136;-81
2021/01/13 04:49:09;;;;;;;1.25;0.98;;;16.30;39.20;;;;;;6141685;23;20187;-81
2021/01/13 04:51:39;;;;;;;1.58;1.13;;;16.30;39.20;;;;;;6116645;23;20139;-81
2021/01/13 04:54:07;;;;;;;1.52;1.17;;;16.30;39.20;;;;;;6139807;23;20366;-80
2021/01/13 04:56:38;;;;;;;1.02;0.93;;;16.40;39.00;;;;;;6114988;23;20136;-82
2021/01/13 04:59:25;;;;;;;1.50;1.10;;;16.40;38.90;;;;;;6116064;23;20132;-81
2021/01/13 05:02:07;;;;;;;1.67;1.10;;;16.40;39.00;;;;;;6141112;23;20147;-81
2021/01/13 05:05:03;;;;;;;1.95;1.10;;;16.30;39.10;;;;;;6114945;23;20160;-82
2021/01/13 05:07:32;;;;;;;1.25;1.10;;;16.30;39.10;;;;;;6141090;23;20141;-82
2021/01/13 05:10:14;;;;;;;1.88;1.05;;;16.30;39.00;;;;;;6141507;23;20152;-81
2021/01/13 05:12:51;;;;;;;1.50;1.40;;;16.40;38.90;;;;;;6140037;23;20143;-81
2021/01/13 05:15:19;;;;;;;1.10;1.00;;;16.40;38.80;;;;;;6140831;23;20142;-81
2021/01/13 05:18:13;;;;;;;1.20;1.10;;;16.40;38.80;;;;;;6115514;23;20141;-81
2021/01/13 05:20:56;;;;;;;0.98;0.80;;;16.40;38.80;;;;;;6140872;23;20209;-81
2021/01/13 05:23:23;;;;;;;1.10;1.00;;;16.40;38.80;;;;;;6141375;23;20133;-81
2021/01/13 05:25:53;;;;;;;1.42;1.08;;;16.40;38.70;;;;;;6114897;23;20564;-80
2021/01/13 05:28:25;;;;;;;1.20;0.90;;;16.40;38.80;;;;;;6138180;23;20223;-81
2021/01/13 05:30:59;;;;;;;1.38;1.00;;;16.40;38.80;;;;;;6138048;23;20445;-81
2021/01/13 05:33:32;;;;;;;1.35;0.90;;;16.40;38.70;;;;;;6137991;23;20179;-81
2021/01/13 05:36:06;;;;;;;0.80;0.80;;;16.40;38.60;;;;;;6137336;23;20135;-79
2021/01/13 05:38:43;;;;;;;1.20;1.10;;;16.40;38.70;;;;;;6059306;23;20219;-79
2021/01/13 05:41:10;;;;;;;1.58;1.10;;;16.40;38.50;;;;;;6109472;23;20144;-80
2021/01/13 05:43:41;;;;;;;1.20;1.10;;;16.50;38.50;;;;;;6061495;23;20141;-81
2021/01/13 05:46:10;;;;;;;1.35;0.93;;;16.50;38.50;;;;;;6084977;23;20164;-81
2021/01/13 05:48:39;;;;;;;1.10;0.90;;;16.50;38.50;;;;;;6110412;23;20141;-80
2021/01/13 05:51:07;;;;;;;1.02;0.93;;;16.50;38.40;;;;;;6083957;23;20145;-81
2021/01/13 05:53:49;;;;;;;0.82;0.80;;;16.50;38.40;;;;;;6111126;23;20184;-79
2021/01/13 05:56:25;;;;;;;1.48;1.00;;;16.50;38.40;;;;;;6084457;23;20183;-81
2021/01/13 05:59:09;;;;;;;1.20;0.90;;;16.50;38.40;;;;;;6110009;23;20141;-80
2021/01/13 06:01:41;;;;;;;1.30;1.10;;;16.50;38.30;;;;;;6110229;23;20168;-80
2021/01/13 06:04:08;;;;;;;0.88;0.88;;;16.40;38.40;;;;;;6110717;23;20137;-81
2021/01/13 06:07:01;;;;;;;1.10;1.00;;;16.50;38.30;;;;;;6086622;23;20180;-81
2021/01/13 06:09:29;;;;;;;1.20;0.90;;;16.50;38.30;;;;;;6111715;23;20152;-81
2021/01/13 06:12:03;;;;;;;1.17;1.08;;;16.50;38.30;;;;;;6085942;23;20137;-80
2021/01/13 06:14:29;;;;;;;1.10;0.82;;;16.40;38.30;;;;;;6085241;23;20199;-81
2021/01/13 06:17:04;;;;;;;1.42;1.00;;;16.40;38.20;;;;;;6111270;23;20156;-81
2021/01/13 06:19:31;;;;;;;1.15;0.90;;;16.40;38.30;;;;;;6111883;23;20538;-82
2021/01/13 06:22:08;;;;;;;1.00;0.90;;;16.50;38.20;;;;;;6086112;23;20147;-81
2021/01/13 06:24:47;;;;;;;1.30;0.90;;;16.50;38.40;;;;;;6086043;23;20144;-80
2021/01/13 06:27:21;;;;;;;1.00;0.65;;;16.50;38.00;;;;;;6111243;23;20176;-80
2021/01/13 06:30:00;;;;;;;1.13;1.02;;;16.60;38.00;;;;;;6086168;23;20176;-81
2021/01/13 06:32:31;;;;;;;1.00;0.90;;;16.60;38.00;;;;;;6112614;23;20164;-81
2021/01/13 06:34:58;;;;;;;0.95;0.80;;;16.60;38.10;;;;;;6086711;23;20137;-80
2021/01/13 06:37:51;;;;;;;0.93;0.90;;;16.50;38.70;;;;;;6128652;23;20191;-83
2021/01/13 06:40:23;;;;;;;1.30;1.08;;;16.50;37.90;;;;;;6136486;23;20168;-81
2021/01/13 06:42:48;;;;;;;0.80;0.80;;;16.50;38.00;;;;;;6114860;23;20484;-82
2021/01/13 06:45:18;;;;;;;1.10;0.80;;;16.50;37.90;;;;;;6090979;23;20148;-81
2021/01/13 06:47:57;;;;;;;1.10;0.90;;;16.60;37.90;;;;;;6115067;23;20168;-81
2021/01/13 06:50:41;;;;;;;1.48;1.00;;;16.50;37.90;;;;;;6115022;23;20132;-81
2021/01/13 06:53:09;;;;;;;0.88;0.82;;;16.50;37.90;;;;;;6140006;23;20176;-81
2021/01/13 06:55:36;;;;;;;1.67;0.98;;;16.60;37.90;;;;;;6114032;23;20152;-81
2021/01/13 06:58:16;;;;;;;0.73;0.73;;;16.50;37.80;;;;;;6140289;23;20133;-80
2021/01/13 07:00:47;;;;;;;2.13;0.90;;;16.50;37.90;;;;;;6140147;23;20132;-81
2021/01/13 07:03:36;;;;;;;0.95;0.82;;;16.50;37.80;;;;;;6090191;23;20144;-81
2021/01/13 07:06:20;;;;;;;0.82;0.80;;;16.50;38.00;;;;;;6137951;23;20140;-81
2021/01/13 07:08:47;;;;;;;1.38;1.10;;;16.40;38.10;;;;;;6137779;23;20156;-80
2021/01/13 07:11:13;;;;;;;2.55;1.67;;;16.40;38.30;;;;;;6138675;23;20137;-80
2021/01/13 07:13:41;;;;;;;3.47;2.30;;;16.30;38.30;;;;;;6138267;23;20179;-81
2021/01/13 07:16:08;;;;;;;4.93;2.83;;;16.40;38.20;;;;;;6137883;23;20144;-81
2021/01/13 07:18:43;;;;;;;3.85;2.25;;;16.50;38.10;;;;;;6137440;23;20139;-80
2021/01/13 07:21:10;;;;;;;4.32;2.25;;;16.50;38.00;;;;;;6111752;23;20171;-79
2021/01/13 07:23:46;;;;;;;3.25;1.90;;;16.60;37.90;;;;;;6138502;23;20132;-81
2021/01/13 07:26:12;;;;;;;3.00;1.60;;;16.60;37.80;;;;;;6139178;23;20150;-81
2021/01/13 07:28:38;;;;;;;2.50;1.50;;;16.60;37.60;;;;;;6139577;23;20205;-81
2021/01/13 07:31:05;;;;;;;2.15;1.35;;;16.60;37.70;;;;;;6112633;23;20140;-81
2021/01/13 07:33:41;;;;;;;1.85;1.40;;;16.60;37.60;;;;;;6138514;23;20164;-80
2021/01/13 07:36:12;;;;;;;2.50;1.40;;;16.60;37.60;;;;;;6112858;23;20140;-80
2021/01/13 07:38:37;;;;;;;1.58;1.38;;;16.60;37.70;;;;;;6084089;23;20165;-81
2021/01/13 07:41:10;;;;;;;2.00;1.48;;;16.60;37.80;;;;;;6058671;23;20157;-83
2021/01/13 07:44:03;;;;;;;1.77;1.27;;;16.60;37.80;;;;;;6117071;23;20153;-83
2021/01/13 07:46:35;;;;;;;2.13;1.35;;;16.60;37.70;;;;;;6093384;23;20137;-84
2021/01/13 07:49:23;;;;;;;1.08;0.85;;;16.60;37.60;;;;;;6118581;23;20187;-83
2021/01/13 07:52:01;;;;;;;1.42;1.20;;;16.60;37.50;;;;;;6093513;23;20160;-82
2021/01/13 07:54:34;;;;;;;1.38;1.20;;;16.70;37.50;;;;;;6070087;23;20176;-84
2021/01/13 07:57:08;;;;;;;2.83;1.48;;;16.70;37.40;;;;;;6089537;23;20133;-84
2021/01/13 07:59:35;;;;;;;1.63;1.17;;;16.60;37.50;;;;;;6113388;23;20172;-83
2021/01/13 08:02:38;;;;;;;2.88;1.63;;;16.60;37.60;;;;;;6086845;23;20603;-81
2021/01/13 08:05:20;;;;;;;3.17;1.65;;;16.60;37.60;;;;;;6115595;23;20147;-84
2021/01/13 08:08:05;;;;;;;2.38;1.63;;;16.60;37.50;;;;;;6116035;23;20136;-85
2021/01/13 08:10:34;;;;;;;2.65;1.70;;;16.60;37.50;;;;;;6114471;23;20148;-85
2021/01/13 08:13:38;;;;;;;2.35;1.50;;;16.60;37.50;;;;;;6114809;23;20160;-84
2021/01/13 08:19:52;;;;;;;2.05;1.30;;;16.50;37.60;;;;;;6114109;23;20164;-83
2021/01/13 08:22:21;;;;;;;2.63;1.60;;;16.50;37.70;;;;;;6116143;23;20137;-83
2021/01/13 08:24:50;;;;;;;1.83;1.38;;;16.50;37.60;;;;;;6090094;23;20144;-83
2021/01/13 08:27:24;;;;;;;2.92;1.40;;;16.60;37.60;;;;;;6064967;23;20133;-83
2021/01/13 08:29:57;;;;;;;2.40;1.60;;;16.60;37.50;;;;;;6039894;23;20216;-83
2021/01/13 08:32:44;;;;;;;2.95;1.42;;;16.50;37.60;;;;;;6087357;23;20149;-82
2021/01/13 08:35:11;;;;;;;3.83;1.80;;;16.40;37.80;;;;;;6085592;23;20158;-81
2021/01/13 08:37:42;;;;;;;2.28;1.42;;;16.40;38.00;;;;;;6106968;23;20176;-83
2021/01/13 08:40:27;;;;;;;3.78;1.90;;;16.50;37.80;;;;;;6096198;23;20579;-83
2021/01/13 08:43:10;;;;;;;6.63;2.00;;;16.60;38.40;;;;;;6142822;23;20211;-82
2021/01/13 08:45:46;;;;;;;5.53;2.38;;;16.40;37.70;;;;;;6120444;23;20176;-84
2021/01/13 08:48:13;;;;;;;5.32;2.30;;;16.40;37.90;;;;;;6071947;23;20152;-84
2021/01/13 08:50:42;;;;;;;7.65;2.45;;;16.40;37.80;;;;;;6143012;23;20132;-83
2021/01/13 08:53:26;;;;;;;5.95;2.38;;;16.50;37.80;;;;;;6117267;23;20175;-84
2021/01/13 08:55:53;;;;;;;5.35;2.15;;;16.50;37.80;;;;;;6143794;23;20132;-85
2021/01/13 08:58:29;;;;;;;5.18;2.20;;;16.50;37.60;;;;;;6117412;23;20133;-84
2021/01/13 09:01:08;;;;;;;4.60;1.92;;;16.60;37.50;;;;;;6094157;23;20372;-83
2021/01/13 09:03:40;;;;;;;3.17;2.15;;;16.60;37.40;;;;;;6143544;23;20142;-83
2021/01/13 09:06:19;;;;;;;3.53;2.00;;;16.60;37.30;;;;;;6117984;23;20171;-82
2021/01/13 09:08:49;;;;;;;4.50;2.47;;;16.60;37.30;;;;;;6142060;23;20136;-83
2021/01/13 09:11:36;;;;;;;5.07;2.45;;;16.60;37.60;;;;;;6143514;23;20148;-83
2021/01/13 09:14:22;;;;;;;5.13;2.45;;;16.50;37.60;;;;;;6093896;23;20176;-83
2021/01/13 09:16:49;;;;;;;3.67;2.13;;;16.50;37.70;;;;;;6118793;23;20144;-83
2021/01/13 09:19:32;;;;;;;5.72;1.88;;;16.60;37.70;;;;;;6070284;23;20208;-83
2021/01/13 09:22:01;;;;;;;4.28;2.10;;;16.60;37.60;;;;;;6096669;23;20144;-82
2021/01/13 09:24:40;;;;;;;3.88;2.28;;;16.60;37.60;;;;;;6119603;23;20163;-82
2021/01/13 09:27:10;;;;;;;4.95;2.42;;;16.70;38.10;;;;;;6074879;23;20159;-81
2021/01/13 09:29:53;;;;;;;4.03;2.22;;;16.70;37.50;;;;;;6097488;23;20132;-82
2021/01/13 09:32:19;;;;;;;4.20;2.17;;;16.60;37.80;;;;;;6120821;23;20195;-79
2021/01/13 09:34:49;;;;;;;3.70;2.08;;;16.60;38.00;;;;;;6095143;23;20168;-84
2021/01/13 09:37:15;;;;;;;4.10;2.20;;;16.60;37.90;;;;;;6093210;23;20195;-82
2021/01/13 09:39:55;;;;;;;4.07;1.98;;;16.70;38.00;;;;;;6073349;23;20154;-83
2021/01/13 09:42:22;;;;;;;3.75;2.38;;;16.70;37.50;;;;;;6142715;23;20132;-83
2021/01/13 09:45:01;;;;;;;2.90;2.05;;;16.60;37.60;;;;;;6092492;23;20213;-83
2021/01/13 09:47:27;;;;;;;3.13;2.00;;;16.60;37.80;;;;;;6117121;23;20137;-83
2021/01/13 09:50:00;;;;;;;3.13;1.90;;;16.60;37.60;;;;;;6092448;23;20155;-83
2021/01/13 09:52:58;;;;;;;2.90;1.95;;;16.70;37.50;;;;;;6092715;23;20160;-84
2021/01/13 09:55:25;;;;;;;3.38;2.15;;;16.60;37.70;;;;;;6112046;23;20156;-84
2021/01/13 09:57:51;;;;;;;5.18;2.33;;;16.60;37.80;;;;;;6093321;23;20159;-82
2021/01/13 10:00:19;;;;;;;2.95;2.00;;;16.70;37.80;;;;;;6093466;23;20159;-83
2021/01/13 10:02:47;;;;;;;2.22;1.73;;;16.80;37.80;;;;;;6070398;23;20192;-83
2021/01/13 10:05:15;;;;;;;5.40;2.40;;;16.80;37.50;;;;;;6093935;23;20133;-83
2021/01/13 10:07:54;;;;;;;5.70;2.22;;;16.80;38.30;;;;;;6118765;23;20133;-82
2021/01/13 10:10:34;;;;;;;3.22;2.20;;;16.80;37.70;;;;;;6122761;23;20132;-81
2021/01/13 10:13:04;;;;;;;2.40;1.90;;;16.70;37.70;;;;;;6121086;23;20163;-82
2021/01/13 10:15:54;;;;;;;4.00;2.17;;;16.70;37.70;;;;;;6099505;23;20148;-82
2021/01/13 10:18:27;;;;;;;3.83;2.28;;;16.70;37.70;;;;;;6118514;23;20148;-83
2021/01/13 10:21:14;;;;;;;3.25;2.05;;;16.70;37.80;;;;;;6079372;23;20152;-85
2021/01/13 10:23:54;;;;;;;3.33;1.98;;;16.70;37.80;;;;;;6101442;23;20151;-83
2021/01/13 10:26:24;;;;;;;3.97;2.50;;;16.70;37.90;;;;;;6100767;23;20156;-83
2021/01/13 10:29:29;;;;;;;4.18;2.15;;;16.60;38.00;;;;;;6100238;23;20171;-83
2021/01/13 10:32:02;;;;;;;4.65;2.42;;;16.70;37.90;;;;;;6121685;23;20156;-83
2021/01/13 10:34:34;;;;;;;3.75;2.03;;;16.70;38.00;;;;;;6072110;23;20247;-84
2021/01/13 10:37:00;;;;;;;3.08;2.20;;;16.70;37.90;;;;;;6073222;23;20191;-83
2021/01/13 10:39:37;;;;;;;3.28;2.10;;;16.70;38.00;;;;;;6073717;23;20543;-83
2021/01/13 10:42:11;;;;;;;3.85;2.10;;;16.80;38.00;;;;;;6070069;23;20143;-82
2021/01/13 10:44:43;;;;;;;3.72;2.30;;;16.80;38.00;;;;;;6094856;23;20204;-83
2021/01/13 10:47:18;;;;;;;3.78;2.20;;;16.70;38.00;;;;;;6117607;23;20152;-82
2021/01/13 10:49:55;;;;;;;3.88;2.40;;;16.80;38.10;;;;;;6068870;23;20609;-82
2021/01/13 10:52:23;;;;;;;3.17;2.17;;;16.80;38.00;;;;;;6092944;23;20472;-83
2021/01/13 10:54:54;;;;;;;4.38;2.10;;;16.80;38.10;;;;;;6092954;23;20199;-82
2021/01/13 10:57:34;;;;;;;4.32;2.30;;;16.80;38.10;;;;;;6118303;23;20648;-83
2021/01/13 11:00:27;;;;;;;3.55;2.15;;;16.70;38.10;;;;;;6143203;23;20139;-82
2021/01/13 11:03:02;;;;;;;5.00;2.20;;;16.80;38.20;;;;;;6115479;23;20144;-83
2021/01/13 11:05:28;;;;;;;6.07;2.50;;;16.80;38.30;;;;;;6069252;23;20587;-83
2021/01/13 11:08:41;;;;;;;5.00;2.80;;;16.80;38.10;;;;;;6118247;23;20135;-84
2021/01/13 11:11:09;;;;;;;5.78;2.20;;;16.80;38.10;;;;;;6003359;23;20198;-82
2021/01/13 11:13:45;;;;;;;3.13;2.15;;;16.80;38.20;;;;;;6026134;23;20173;-82
2021/01/13 11:16:15;;;;;;;7.32;2.30;;;16.70;38.20;;;;;;6004317;23;20150;-83
2021/01/13 11:18:43;;;;;;;9.88;2.40;;;16.70;38.30;;;;;;6004261;23;20178;-81
2021/01/13 11:21:19;;;;;;;7.93;2.20;;;16.70;38.30;;;;;;6001979;23;20155;-82
2021/01/13 11:23:52;;;;;;;7.53;2.28;;;16.70;38.40;;;;;;6008019;23;20174;-83
2021/01/13 11:26:19;;;;;;;6.80;2.20;;;16.80;38.40;;;;;;6005583;23;20169;-82
2021/01/13 11:28:46;;;;;;;4.60;2.25;;;16.70;38.40;;;;;;6003730;23;20155;-82
2021/01/13 11:31:36;;;;;;;8.63;2.58;;;16.70;38.30;;;;;;5998719;23;20183;-80
2021/01/13 11:34:03;;;;;;;3.92;2.17;;;16.70;38.50;;;;;;6023121;23;20175;-81
2021/01/13 11:36:29;;;;;;;3.95;2.35;;;16.80;38.40;;;;;;6066556;23;20149;-83
2021/01/13 11:38:55;;;;;;;5.97;2.63;;;16.70;38.40;;;;;;6090878;23;20520;-84
2021/01/13 11:41:57;;;;;;;4.82;2.80;;;16.80;38.50;;;;;;6141354;23;20576;-82
2021/01/13 11:44:58;;;;;;;6.30;2.53;;;16.80;38.40;;;;;;6141482;23;20187;-82
2021/01/13 11:47:34;;;;;;;4.40;2.60;;;16.80;38.40;;;;;;6140628;23;20136;-82
2021/01/13 11:50:23;;;;;;;3.28;2.25;;;16.80;38.30;;;;;;6114842;23;20142;-83
2021/01/13 11:52:59;;;;;;;3.55;2.30;;;16.80;38.50;;;;;;6137846;23;20231;-82
2021/01/13 11:55:37;;;;;;;6.07;2.28;;;16.80;38.30;;;;;;6141729;23;20128;-81
2021/01/13 11:58:03;;;;;;;5.13;2.40;;;16.80;38.30;;;;;;6114861;23;20152;-82
2021/01/13 12:00:28;;;;;;;5.30;2.42;;;16.80;38.40;;;;;;6138014;23;20211;-81
2021/01/13 12:03:02;;;;;;;4.05;2.47;;;16.80;38.40;;;;;;6140346;23;20157;-81
2021/01/13 12:05:29;;;;;;;2.65;2.10;;;16.80;38.40;;;;;;6088248;23;20151;-81
2021/01/13 12:07:57;;;;;;;4.35;2.08;;;16.90;38.40;;;;;;6114837;23;20128;-80
2021/01/13 12:10:31;;;;;;;6.15;2.63;;;16.90;38.40;;;;;;6115190;23;20497;-81
2021/01/13 12:13:16;;;;;;;4.85;2.47;;;16.80;38.40;;;;;;6140645;23;20159;-81
2021/01/13 12:15:49;;;;;;;3.65;2.33;;;16.80;38.50;;;;;;6140325;23;20635;-82
2021/01/13 12:18:24;;;;;;;5.68;2.58;;;16.80;38.50;;;;;;6115100;23;20132;-82
2021/01/13 12:20:52;;;;;;;4.82;2.42;;;16.80;38.50;;;;;;6141012;23;20131;-82
2021/01/13 12:23:29;;;;;;;5.38;2.53;;;16.80;38.60;;;;;;6115546;23;20136;-81
2021/01/13 12:26:12;;;;;;;3.72;2.28;;;16.90;38.60;;;;;;6141086;23;20132;-82
2021/01/13 12:28:38;;;;;;;3.70;2.25;;;16.90;38.50;;;;;;6090452;23;20211;-82
2021/01/13 12:31:04;;;;;;;3.00;2.25;;;16.90;38.50;;;;;;6113711;23;20163;-82
2021/01/13 12:33:30;;;;;;;2.83;2.10;;;16.80;38.50;;;;;;6112461;23;20170;-82
2021/01/13 12:36:16;;;;;;;3.83;2.60;;;16.90;38.60;;;;;;6113318;23;20152;-82
2021/01/13 12:38:46;;;;;;;4.28;2.40;;;16.90;38.60;;;;;;6138976;23;20151;-82
2021/01/13 12:41:23;;;;;;;4.93;2.20;;;16.80;38.60;;;;;;6094185;23;20152;-83
2021/01/13 12:43:51;;;;;;;3.92;2.20;;;16.80;38.60;;;;;;6146561;23;20136;-84
2021/01/13 12:46:37;;;;;;;4.32;2.40;;;16.80;38.70;;;;;;6145569;23;20207;-83
2021/01/13 12:49:04;;;;;;;3.05;2.22;;;16.80;38.70;;;;;;6147087;23;20195;-82
2021/01/13 12:51:39;;;;;;;4.47;2.38;;;16.80;38.60;;;;;;6146112;23;20187;-84
2021/01/13 12:54:06;;;;;;;3.22;2.47;;;16.90;38.60;;;;;;6149723;23;20159;-84
2021/01/13 12:56:41;;;;;;;3.67;2.30;;;16.80;38.50;;;;;;6150496;23;20139;-84
2021/01/13 12:59:15;;;;;;;2.90;2.20;;;16.80;38.50;;;;;;6146533;23;20144;-82
2021/01/13 13:01:44;;;;;;;3.10;2.35;;;16.80;38.70;;;;;;6148811;23;20120;-83
2021/01/13 13:04:10;;;;;;;3.28;2.28;;;16.80;38.70;;;;;;6125142;23;20156;-79
2021/01/13 13:06:40;;;;;;;4.05;2.28;;;16.80;38.70;;;;;;6101145;23;20183;-81
2021/01/13 13:09:12;;;;;;;3.90;2.42;;;16.80;38.60;;;;;;6125415;23;20140;-83
2021/01/13 13:11:47;;;;;;;3.05;2.00;;;16.90;38.60;;;;;;6125871;23;20136;-83
2021/01/13 13:14:15;;;;;;;3.80;2.15;;;16.90;38.50;;;;;;6123337;23;20163;-80
2021/01/13 13:16:41;;;;;;;4.80;2.20;;;16.90;38.50;;;;;;6150413;23;20182;-81
2021/01/13 13:19:08;;;;;;;2.40;2.20;;;16.90;38.30;;;;;;6151078;23;20136;-82
2021/01/13 13:21:35;;;;;;;3.22;2.38;;;16.90;38.30;;;;;;6151827;23;20201;-81
2021/01/13 13:24:02;;;;;;;3.95;2.47;;;17.00;38.30;;;;;;6126429;23;20216;-83
2021/01/13 13:26:28;;;;;;;3.60;2.20;;;16.90;38.30;;;;;;6125812;23;20124;-81
2021/01/13 13:28:55;;;;;;;3.17;2.30;;;17.00;39.00;;;;;;6152110;23;20141;-80